createdAt,value
2019-03-19T00:00:33.674Z,102481.00
2019-03-19T00:02:09.043Z,102491.00
2019-03-19T00:03:44.410Z,102484.00
2019-03-19T00:05:19.773Z,102494.00
2019-03-19T00:06:55.150Z,102482.00
2019-03-19T00:08:30.517Z,102488.00
2019-03-19T00:10:09.190Z,102493.00
2019-03-19T00:11:44.862Z,102490.00
2019-03-19T00:13:20.230Z,102494.00
2019-03-19T00:14:55.592Z,102493.00
2019-03-19T00:16:30.972Z,102498.00
2019-03-19T00:18:06.331Z,102502.00
2019-03-19T00:19:41.696Z,102496.00
2019-03-19T00:21:17.074Z,102505.00
2019-03-19T00:22:52.435Z,102500.00
2019-03-19T00:24:27.799Z,102505.00
2019-03-19T00:26:03.174Z,102506.00
2019-03-19T00:27:38.605Z,102507.00
2019-03-19T00:29:13.972Z,102517.00
2019-03-19T00:30:49.347Z,102506.00
2019-03-19T00:32:24.704Z,102516.00
2019-03-19T00:34:00.072Z,102512.00
2019-03-19T00:35:35.442Z,102504.00
2019-03-19T00:37:10.817Z,102507.00
2019-03-19T00:38:46.178Z,102514.00
2019-03-19T00:40:21.808Z,102517.00
2019-03-19T00:41:57.658Z,102515.00
2019-03-19T00:43:33.024Z,102520.00
2019-03-19T00:45:13.850Z,102517.00
2019-03-19T00:46:49.223Z,102519.00
2019-03-19T00:48:24.580Z,102512.00
2019-03-19T00:50:01.066Z,102519.00
2019-03-19T00:51:36.441Z,102518.00
2019-03-19T00:53:11.803Z,102525.00
2019-03-19T00:54:47.168Z,102517.00
2019-03-19T00:56:22.536Z,102520.00
2019-03-19T00:57:57.980Z,102517.00
2019-03-19T00:59:33.338Z,102516.00
2019-03-19T01:01:08.705Z,102520.00
2019-03-19T01:02:44.079Z,102505.00
2019-03-19T01:04:19.450Z,102522.00
2019-03-19T01:05:55.795Z,102513.00
2019-03-19T01:07:31.375Z,102518.00
2019-03-19T01:09:07.883Z,102526.00
2019-03-19T01:14:53.378Z,102519.00
2019-03-19T01:16:28.756Z,102520.00
2019-03-19T01:18:04.132Z,102516.00
2019-03-19T01:19:39.497Z,102530.00
2019-03-19T01:21:15.136Z,102525.00
2019-03-19T01:22:50.516Z,102520.00
2019-03-19T01:24:25.890Z,102516.00
2019-03-19T01:26:01.255Z,102527.00
2019-03-19T01:27:36.631Z,102526.00
2019-03-19T01:29:11.988Z,102522.00
2019-03-19T01:30:47.371Z,102520.00
2019-03-19T01:32:22.761Z,102529.00
2019-03-19T01:34:00.065Z,102520.00
2019-03-19T01:35:35.427Z,102525.00
2019-03-19T01:37:10.819Z,102525.00
2019-03-19T01:38:46.198Z,102531.00
2019-03-19T01:40:21.562Z,102526.00
2019-03-19T01:41:56.949Z,102531.00
2019-03-19T01:43:32.334Z,102542.00
2019-03-19T01:45:10.847Z,102542.00
2019-03-19T01:46:46.245Z,102535.00
2019-03-19T01:48:21.619Z,102536.00
2019-03-19T01:49:56.993Z,102538.00
2019-03-19T01:51:32.392Z,102531.00
2019-03-19T01:53:07.772Z,102531.00
2019-03-19T01:54:43.175Z,102534.00
2019-03-19T01:56:18.557Z,102542.00
2019-03-19T01:57:53.954Z,102544.00
2019-03-19T01:59:29.348Z,102540.00
2019-03-19T02:01:04.851Z,102544.00
2019-03-19T02:02:40.228Z,102539.00
2019-03-19T02:04:15.621Z,102544.00
2019-03-19T02:05:51.016Z,102547.00
2019-03-19T02:07:26.420Z,102548.00
2019-03-19T02:09:02.030Z,102550.00
2019-03-19T02:10:37.958Z,102544.00
2019-03-19T02:12:13.360Z,102549.00
2019-03-19T02:13:49.009Z,102554.00
2019-03-19T02:15:24.407Z,102552.00
2019-03-19T02:16:59.774Z,102556.00
2019-03-19T02:18:35.147Z,102563.00
2019-03-19T02:20:18.646Z,102556.00
2019-03-19T02:21:54.037Z,102567.00
2019-03-19T02:23:30.413Z,102563.00
2019-03-19T02:25:09.099Z,102569.00
2019-03-19T02:26:45.468Z,102568.00
2019-03-19T02:28:20.835Z,102575.00
2019-03-19T02:29:56.253Z,102572.00
2019-03-19T02:31:31.874Z,102579.00
2019-03-19T02:33:07.276Z,102579.00
2019-03-19T02:34:42.643Z,102586.00
2019-03-19T02:36:18.030Z,102591.00
2019-03-19T02:37:53.413Z,102596.00
2019-03-19T02:39:28.796Z,102599.00
2019-03-19T02:41:04.191Z,102592.00
2019-03-19T02:42:39.576Z,102605.00
2019-03-19T02:44:15.439Z,102599.00
2019-03-19T02:45:51.100Z,102604.00
2019-03-19T02:47:26.476Z,102603.00
2019-03-19T02:49:01.863Z,102608.00
2019-03-19T02:50:37.565Z,102612.00
2019-03-19T02:52:13.192Z,102611.00
2019-03-19T02:53:48.550Z,102603.00
2019-03-19T02:55:23.947Z,102614.00
2019-03-19T02:56:59.337Z,102609.00
2019-03-19T02:58:34.709Z,102617.00
2019-03-19T03:00:19.928Z,102610.00
2019-03-19T03:01:55.383Z,102614.00
2019-03-19T03:03:32.309Z,102616.00
2019-03-19T03:05:15.822Z,102622.00
2019-03-19T03:06:51.234Z,102621.00
2019-03-19T03:08:26.612Z,102624.00
2019-03-19T03:10:02.272Z,102624.00
2019-03-19T03:11:37.701Z,102627.00
2019-03-19T03:13:13.091Z,102625.00
2019-03-19T03:14:49.551Z,102647.00
2019-03-19T03:16:24.948Z,102635.00
2019-03-19T03:18:01.201Z,102625.00
2019-03-19T03:19:36.594Z,102626.00
2019-03-19T03:21:12.234Z,102626.00
2019-03-19T03:22:47.610Z,102641.00
2019-03-19T03:24:22.991Z,102626.00
2019-03-19T03:25:58.366Z,102638.00
2019-03-19T03:27:33.778Z,102632.00
2019-03-19T03:29:09.166Z,102641.00
2019-03-19T03:30:44.998Z,102635.00
2019-03-19T03:32:20.635Z,102643.00
2019-03-19T03:33:56.014Z,102643.00
2019-03-19T03:35:31.415Z,102641.00
2019-03-19T03:37:07.773Z,102639.00
2019-03-19T03:38:43.129Z,102634.00
2019-03-19T03:40:19.718Z,102629.00
2019-03-19T03:41:55.101Z,102625.00
2019-03-19T03:43:32.028Z,102628.00
2019-03-19T03:45:13.662Z,102625.00
2019-03-19T03:46:49.046Z,102638.00
2019-03-19T03:48:24.711Z,102646.00
2019-03-19T03:50:00.205Z,102642.00
2019-03-19T03:51:36.608Z,102639.00
2019-03-19T03:53:12.009Z,102634.00
2019-03-19T03:54:47.409Z,102643.00
2019-03-19T03:56:22.820Z,102639.00
2019-03-19T03:57:58.202Z,102647.00
2019-03-19T03:59:33.577Z,102646.00
2019-03-19T04:01:09.070Z,102654.00
2019-03-19T04:02:45.029Z,102654.00
2019-03-19T04:04:20.531Z,102659.00
2019-03-19T04:05:55.932Z,102661.00
2019-03-19T04:07:31.301Z,102662.00
2019-03-19T04:09:09.432Z,102662.00
2019-03-19T04:10:44.883Z,102663.00
2019-03-19T04:12:20.323Z,102659.00
2019-03-19T04:13:55.727Z,102660.00
2019-03-19T04:15:31.093Z,102666.00
2019-03-19T04:17:06.487Z,102676.00
2019-03-19T04:18:41.853Z,102672.00
2019-03-19T04:20:18.655Z,102676.00
2019-03-19T04:21:54.026Z,102679.00
2019-03-19T04:23:31.052Z,102675.00
2019-03-19T04:25:08.435Z,102680.00
2019-03-19T04:26:43.804Z,102684.00
2019-03-19T04:28:19.174Z,102690.00
2019-03-19T04:29:54.591Z,102690.00
2019-03-19T04:31:29.958Z,102686.00
2019-03-19T04:33:05.598Z,102690.00
2019-03-19T04:34:42.070Z,102680.00
2019-03-19T04:36:17.453Z,102685.00
2019-03-19T04:37:52.817Z,102688.00
2019-03-19T04:39:28.192Z,102684.00
2019-03-19T04:41:03.573Z,102692.00
2019-03-19T04:42:38.938Z,102692.00
2019-03-19T04:44:14.316Z,102693.00
2019-03-19T04:45:49.687Z,102695.00
2019-03-19T04:47:25.115Z,102693.00
2019-03-19T04:49:00.470Z,102702.00
2019-03-19T04:50:35.837Z,102695.00
2019-03-19T04:52:11.205Z,102706.00
2019-03-19T04:53:47.586Z,102710.00
2019-03-19T04:55:22.973Z,102711.00
2019-03-19T04:56:58.355Z,102712.00
2019-03-19T04:58:33.718Z,102712.00
2019-03-19T05:00:12.717Z,102711.00
2019-03-19T05:01:48.083Z,102703.00
2019-03-19T05:03:23.467Z,102717.00
2019-03-19T05:04:58.844Z,102722.00
2019-03-19T05:06:34.230Z,102714.00
2019-03-19T05:08:09.598Z,102705.00
2019-03-19T05:09:44.979Z,102715.00
2019-03-19T05:11:20.363Z,102719.00
2019-03-19T05:12:55.980Z,102717.00
2019-03-19T05:14:31.368Z,102722.00
2019-03-19T05:16:06.752Z,102717.00
2019-03-19T05:17:42.119Z,102721.00
2019-03-19T05:19:17.904Z,102724.00
2019-03-19T05:20:53.293Z,102729.00
2019-03-19T05:22:28.740Z,102725.00
2019-03-19T05:24:04.147Z,102726.00
2019-03-19T05:25:39.791Z,102724.00
2019-03-19T05:27:15.153Z,102729.00
2019-03-19T05:28:50.528Z,102719.00
2019-03-19T05:30:26.888Z,102727.00
2019-03-19T05:32:02.528Z,102730.00
2019-03-19T05:33:37.909Z,102737.00
2019-03-19T05:35:14.261Z,102742.00
2019-03-19T05:36:50.614Z,102736.00
2019-03-19T05:38:25.998Z,102739.00
2019-03-19T05:40:02.335Z,102739.00
2019-03-19T05:41:37.692Z,102731.00
2019-03-19T05:43:13.128Z,102737.00
2019-03-19T05:44:49.657Z,102746.00
2019-03-19T05:46:25.029Z,102740.00
2019-03-19T05:48:00.406Z,102737.00
2019-03-19T05:49:35.784Z,102746.00
2019-03-19T05:51:11.174Z,102744.00
2019-03-19T05:52:48.454Z,102761.00
2019-03-19T05:54:23.626Z,102760.00
2019-03-19T05:55:58.988Z,102753.00
2019-03-19T05:57:34.392Z,102758.00
2019-03-19T05:59:12.152Z,102770.00
2019-03-19T06:00:49.162Z,102764.00
2019-03-19T06:02:24.530Z,102770.00
2019-03-19T06:03:59.932Z,102772.00
2019-03-19T06:05:35.315Z,102767.00
2019-03-19T06:07:10.697Z,102774.00
2019-03-19T06:08:46.070Z,102776.00
2019-03-19T06:10:21.462Z,102774.00
2019-03-19T06:11:57.083Z,102780.00
2019-03-19T06:13:32.445Z,102788.00
2019-03-19T06:15:16.187Z,102783.00
2019-03-19T06:16:51.561Z,102782.00
2019-03-19T06:18:35.020Z,102785.00
2019-03-19T06:20:05.938Z,102793.00
2019-03-19T06:21:41.325Z,102788.00
2019-03-19T06:23:16.737Z,102789.00
2019-03-19T06:24:52.122Z,102773.00
2019-03-19T06:26:27.473Z,102788.00
2019-03-19T06:28:02.870Z,102787.00
2019-03-19T06:29:38.236Z,102796.00
2019-03-19T06:31:13.624Z,102798.00
2019-03-19T06:32:48.993Z,102799.00
2019-03-19T06:34:24.346Z,102808.00
2019-03-19T06:35:59.744Z,102809.00
2019-03-19T06:37:35.113Z,102816.00
2019-03-19T06:39:10.478Z,102817.00
2019-03-19T06:40:46.126Z,102822.00
2019-03-19T06:42:21.517Z,102829.00
2019-03-19T06:43:56.880Z,102819.00
2019-03-19T06:45:32.263Z,102821.00
2019-03-19T06:47:07.636Z,102827.00
2019-03-19T06:48:43.017Z,102826.00
2019-03-19T06:50:20.482Z,102815.00
2019-03-19T06:51:55.843Z,102835.00
2019-03-19T06:53:32.743Z,102828.00
2019-03-19T06:55:11.648Z,102828.00
2019-03-19T06:56:47.033Z,102829.00
2019-03-19T06:58:22.405Z,102835.00
2019-03-19T06:59:57.789Z,102843.00
2019-03-19T07:01:33.169Z,102836.00
2019-03-19T07:03:08.538Z,102835.00
2019-03-19T07:04:43.924Z,102842.00
2019-03-19T07:06:20.253Z,102835.00
2019-03-19T07:07:55.629Z,102835.00
2019-03-19T07:09:31.027Z,102833.00
2019-03-19T07:11:06.387Z,102840.00
2019-03-19T07:12:42.067Z,102843.00
2019-03-19T07:14:17.443Z,102854.00
2019-03-19T07:15:52.839Z,102850.00
2019-03-19T07:17:28.218Z,102848.00
2019-03-19T07:19:03.591Z,102854.00
2019-03-19T07:20:38.969Z,102857.00
2019-03-19T07:22:14.334Z,102863.00
2019-03-19T07:23:50.614Z,102865.00
2019-03-19T07:25:26.067Z,102861.00
2019-03-19T07:27:01.449Z,102859.00
2019-03-19T07:28:36.844Z,102864.00
2019-03-19T07:30:24.007Z,102867.00
2019-03-19T07:31:59.375Z,102872.00
2019-03-19T07:33:34.773Z,102873.00
2019-03-19T07:35:10.281Z,102869.00
2019-03-19T07:36:45.761Z,102872.00
2019-03-19T07:38:22.110Z,102869.00
2019-03-19T07:39:57.506Z,102875.00
2019-03-19T07:41:32.880Z,102884.00
2019-03-19T07:43:08.385Z,102877.00
2019-03-19T07:44:43.799Z,102876.00
2019-03-19T07:46:20.174Z,102879.00
2019-03-19T07:47:55.572Z,102882.00
2019-03-19T07:49:30.946Z,102889.00
2019-03-19T07:51:06.349Z,102899.00
2019-03-19T07:52:41.735Z,102896.00
2019-03-19T07:54:17.148Z,102891.00
2019-03-19T07:55:54.152Z,102903.00
2019-03-19T07:57:29.716Z,102901.00
2019-03-19T07:59:05.066Z,102905.00
2019-03-19T08:00:40.461Z,102908.00
2019-03-19T08:02:15.842Z,102907.00
2019-03-19T08:03:51.232Z,102921.00
2019-03-19T08:05:32.974Z,102917.00
2019-03-19T08:07:03.723Z,102921.00
2019-03-19T08:08:39.144Z,102927.00
2019-03-19T08:10:18.946Z,102926.00
2019-03-19T08:11:54.317Z,102931.00
2019-03-19T08:13:30.966Z,102938.00
2019-03-19T08:15:15.197Z,102934.00
2019-03-19T08:16:53.112Z,102953.00
2019-03-19T08:18:27.679Z,102946.00
2019-03-19T08:20:03.149Z,102953.00
2019-03-19T08:21:38.553Z,102956.00
2019-03-19T08:23:13.952Z,102951.00
2019-03-19T08:24:49.350Z,102963.00
2019-03-19T08:26:24.829Z,102958.00
2019-03-19T08:28:00.203Z,102967.00
2019-03-19T08:29:35.837Z,102956.00
2019-03-19T08:31:11.231Z,102965.00
2019-03-19T08:32:46.643Z,102964.00
2019-03-19T08:34:22.015Z,102966.00
2019-03-19T08:35:57.402Z,102967.00
2019-03-19T08:37:32.793Z,102968.00
2019-03-19T08:39:09.141Z,102965.00
2019-03-19T08:40:44.533Z,102974.00
2019-03-19T08:42:19.917Z,102980.00
2019-03-19T08:44:04.051Z,102973.00
2019-03-19T08:45:39.440Z,102977.00
2019-03-19T08:47:14.833Z,102978.00
2019-03-19T08:48:50.564Z,102980.00
2019-03-19T08:50:25.982Z,102971.00
2019-03-19T08:52:01.347Z,102977.00
2019-03-19T08:53:36.733Z,102966.00
2019-03-19T08:55:13.349Z,102985.00
2019-03-19T08:56:48.835Z,102984.00
2019-03-19T08:58:25.254Z,102987.00
2019-03-19T09:00:00.672Z,102984.00
2019-03-19T09:01:36.049Z,102989.00
2019-03-19T09:03:11.431Z,102998.00
2019-03-19T09:04:46.828Z,103004.00
2019-03-19T09:06:22.477Z,103001.00
2019-03-19T09:07:57.887Z,102999.00
2019-03-19T09:09:33.721Z,103008.00
2019-03-19T09:11:09.121Z,103010.00
2019-03-19T09:12:44.506Z,103011.00
2019-03-19T09:14:19.897Z,103006.00
2019-03-19T09:15:56.126Z,103016.00
2019-03-19T09:17:31.541Z,103015.00
2019-03-19T09:19:06.928Z,103013.00
2019-03-19T09:20:42.322Z,103014.00
2019-03-19T09:22:18.023Z,103010.00
2019-03-19T09:23:53.423Z,103009.00
2019-03-19T09:25:29.081Z,103006.00
2019-03-19T09:27:04.497Z,103004.00
2019-03-19T09:28:39.879Z,103003.00
2019-03-19T09:30:25.987Z,103005.00
2019-03-19T09:32:01.381Z,103005.00
2019-03-19T09:33:36.768Z,103016.00
2019-03-19T09:35:12.222Z,103020.00
2019-03-19T09:36:57.083Z,103006.00
2019-03-19T09:38:24.694Z,103014.00
2019-03-19T09:40:00.094Z,103008.00
2019-03-19T09:41:35.485Z,103016.00
2019-03-19T09:43:10.865Z,103011.00
2019-03-19T09:44:46.287Z,103017.00
2019-03-19T09:46:21.927Z,103016.00
2019-03-19T09:47:58.142Z,103021.00
2019-03-19T09:49:33.536Z,103018.00
2019-03-19T09:51:08.933Z,103018.00
2019-03-19T09:52:44.550Z,103029.00
2019-03-19T09:54:19.952Z,103020.00
2019-03-19T09:55:56.103Z,103026.00
2019-03-19T09:57:31.509Z,103023.00
2019-03-19T09:59:07.136Z,103014.00
2019-03-19T10:00:42.540Z,103015.00
2019-03-19T10:02:17.940Z,103008.00
2019-03-19T10:03:53.323Z,103022.00
2019-03-19T10:05:29.007Z,103024.00
2019-03-19T10:07:06.322Z,103008.00
2019-03-19T10:08:41.482Z,103014.00
2019-03-19T10:10:22.490Z,103019.00
2019-03-19T10:11:57.870Z,103015.00
2019-03-19T10:13:34.927Z,103011.00
2019-03-19T10:15:11.426Z,103027.00
2019-03-19T10:16:46.829Z,103017.00
2019-03-19T10:18:22.236Z,103021.00
2019-03-19T10:19:57.897Z,103028.00
2019-03-19T10:21:33.283Z,103026.00
2019-03-19T10:23:08.940Z,103025.00
2019-03-19T10:24:44.324Z,103023.00
2019-03-19T10:26:19.735Z,103028.00
2019-03-19T10:27:55.122Z,103024.00
2019-03-19T10:29:38.167Z,103032.00
2019-03-19T10:31:07.599Z,103045.00
2019-03-19T10:32:43.018Z,103038.00
2019-03-19T10:34:18.685Z,103040.00
2019-03-19T10:35:54.046Z,103046.00
2019-03-19T10:37:30.444Z,103045.00
2019-03-19T10:39:09.210Z,103036.00
2019-03-19T10:40:44.633Z,103050.00
2019-03-19T10:42:20.019Z,103048.00
2019-03-19T10:43:55.425Z,103046.00
2019-03-19T10:45:30.866Z,103050.00
2019-03-19T10:47:06.263Z,103048.00
2019-03-19T10:48:41.643Z,103055.00
2019-03-19T10:50:25.146Z,103045.00
2019-03-19T10:52:01.147Z,103047.00
2019-03-19T10:53:36.544Z,103050.00
2019-03-19T10:55:11.992Z,103049.00
2019-03-19T10:56:47.394Z,103055.00
2019-03-19T10:58:22.767Z,103062.00
2019-03-19T11:00:02.808Z,103059.00
2019-03-19T11:01:38.446Z,103061.00
2019-03-19T11:03:13.841Z,103059.00
2019-03-19T11:04:49.217Z,103066.00
2019-03-19T11:06:24.630Z,103064.00
2019-03-19T11:08:00.029Z,103069.00
2019-03-19T11:09:35.415Z,103064.00
2019-03-19T11:11:10.787Z,103064.00
2019-03-19T11:12:46.268Z,103056.00
2019-03-19T11:14:21.655Z,103055.00
2019-03-19T11:15:57.044Z,103054.00
2019-03-19T11:17:32.491Z,103053.00
2019-03-19T11:19:07.856Z,103056.00
2019-03-19T11:20:45.423Z,103065.00
2019-03-19T11:22:20.358Z,103049.00
2019-03-19T11:23:55.729Z,103044.00
2019-03-19T11:25:31.660Z,103046.00
2019-03-19T11:27:07.066Z,103047.00
2019-03-19T11:28:42.504Z,103048.00
2019-03-19T11:30:23.637Z,103045.00
2019-03-19T11:31:59.025Z,103042.00
2019-03-19T11:33:35.384Z,103040.00
2019-03-19T11:35:13.194Z,103046.00
2019-03-19T11:36:57.479Z,103049.00
2019-03-19T11:38:25.676Z,103050.00
2019-03-19T11:40:01.071Z,103057.00
2019-03-19T11:41:36.477Z,103054.00
2019-03-19T11:43:11.891Z,103046.00
2019-03-19T11:44:47.278Z,103053.00
2019-03-19T11:46:22.675Z,103044.00
2019-03-19T11:47:58.073Z,103047.00
2019-03-19T11:49:34.147Z,103038.00
2019-03-19T11:51:09.531Z,103037.00
2019-03-19T11:52:44.962Z,103040.00
2019-03-19T11:54:21.308Z,103035.00
2019-03-19T11:55:56.945Z,103038.00
2019-03-19T11:57:32.352Z,103040.00
2019-03-19T11:59:07.748Z,103040.00
2019-03-19T12:00:44.775Z,103026.00
2019-03-19T12:02:25.770Z,103035.00
2019-03-19T12:03:57.550Z,103027.00
2019-03-19T12:05:32.949Z,103033.00
2019-03-19T12:07:08.324Z,103032.00
2019-03-19T12:08:43.722Z,103030.00
2019-03-19T12:10:19.110Z,103030.00
2019-03-19T12:11:54.501Z,103031.00
2019-03-19T12:13:29.908Z,103035.00
2019-03-19T12:15:10.821Z,103031.00
2019-03-19T12:16:46.226Z,103034.00
2019-03-19T12:18:21.696Z,103039.00
2019-03-19T12:19:57.078Z,103034.00
2019-03-19T12:21:32.460Z,103039.00
2019-03-19T12:23:07.862Z,103040.00
2019-03-19T12:24:43.265Z,103043.00
2019-03-19T12:26:18.659Z,103046.00
2019-03-19T12:27:55.270Z,103048.00
2019-03-19T12:29:30.647Z,103048.00
2019-03-19T12:31:06.087Z,103048.00
2019-03-19T12:32:41.471Z,103042.00
2019-03-19T12:34:16.843Z,103047.00
2019-03-19T12:35:52.241Z,103041.00
2019-03-19T12:37:27.663Z,103047.00
2019-03-19T12:39:03.129Z,103039.00
2019-03-19T12:40:38.514Z,103041.00
2019-03-19T12:42:13.875Z,103042.00
2019-03-19T12:43:49.280Z,103046.00
2019-03-19T12:45:25.754Z,103041.00
2019-03-19T12:47:02.126Z,103039.00
2019-03-19T12:48:37.828Z,103047.00
2019-03-19T12:50:28.565Z,103051.00
2019-03-19T12:52:04.251Z,103049.00
2019-03-19T12:53:39.646Z,103051.00
2019-03-19T12:55:15.165Z,103057.00
2019-03-19T12:56:50.573Z,103045.00
2019-03-19T12:58:25.977Z,103047.00
2019-03-19T13:00:01.355Z,103051.00
2019-03-19T13:01:37.979Z,103051.00
2019-03-19T13:03:13.377Z,103044.00
2019-03-19T13:04:49.060Z,103047.00
2019-03-19T13:06:24.455Z,103054.00
2019-03-19T13:07:59.851Z,103053.00
2019-03-19T13:09:35.570Z,103052.00
2019-03-19T13:11:10.953Z,103052.00
2019-03-19T13:12:46.719Z,103054.00
2019-03-19T13:14:22.108Z,103053.00
2019-03-19T13:15:57.497Z,103059.00
2019-03-19T13:17:32.880Z,103058.00
2019-03-19T13:19:09.052Z,103056.00
2019-03-19T13:20:44.449Z,103053.00
2019-03-19T13:22:19.916Z,103057.00
2019-03-19T13:23:55.308Z,103058.00
2019-03-19T13:25:30.705Z,103059.00
2019-03-19T13:27:06.083Z,103073.00
2019-03-19T13:28:43.354Z,103070.00
2019-03-19T13:30:31.314Z,103067.00
2019-03-19T13:32:06.709Z,103062.00
2019-03-19T13:33:42.089Z,103059.00
2019-03-19T13:35:17.482Z,103057.00
2019-03-19T13:36:52.862Z,103049.00
2019-03-19T13:38:28.278Z,103061.00
2019-03-19T13:40:05.084Z,103072.00
2019-03-19T13:41:40.503Z,103058.00
2019-03-19T13:43:15.897Z,103051.00
2019-03-19T13:44:51.438Z,103065.00
2019-03-19T13:46:27.078Z,103064.00
2019-03-19T13:48:02.469Z,103066.00
2019-03-19T13:49:37.859Z,103067.00
2019-03-19T13:51:13.228Z,103069.00
2019-03-19T13:52:48.622Z,103073.00
2019-03-19T13:54:24.003Z,103073.00
2019-03-19T13:55:59.551Z,103076.00
2019-03-19T13:57:35.192Z,103068.00
2019-03-19T13:59:10.772Z,103074.00
2019-03-19T14:00:55.261Z,103066.00
2019-03-19T14:02:23.312Z,103064.00
2019-03-19T14:03:58.708Z,103067.00
2019-03-19T14:05:34.082Z,103066.00
2019-03-19T14:07:09.473Z,103065.00
2019-03-19T14:08:44.854Z,103066.00
2019-03-19T14:10:23.093Z,103063.00
2019-03-19T14:11:58.466Z,103073.00
2019-03-19T14:13:35.511Z,103072.00
2019-03-19T14:15:20.602Z,103072.00
2019-03-19T14:16:55.991Z,103074.00
2019-03-19T14:18:31.376Z,103082.00
2019-03-19T14:20:13.238Z,103080.00
2019-03-19T14:21:48.625Z,103073.00
2019-03-19T14:23:24.017Z,103076.00
2019-03-19T14:24:59.415Z,103069.00
2019-03-19T14:26:34.829Z,103072.00
2019-03-19T14:28:10.242Z,103073.00
2019-03-19T14:29:45.977Z,103074.00
2019-03-19T14:31:21.373Z,103070.00
2019-03-19T14:32:56.748Z,103074.00
2019-03-19T14:34:32.123Z,103068.00
2019-03-19T14:36:07.523Z,103073.00
2019-03-19T14:37:43.054Z,103076.00
2019-03-19T14:39:18.449Z,103082.00
2019-03-19T14:40:53.845Z,103079.00
2019-03-19T14:42:29.244Z,103084.00
2019-03-19T14:44:04.763Z,103074.00
2019-03-19T14:45:40.145Z,103085.00
2019-03-19T14:47:15.527Z,103071.00
2019-03-19T14:48:50.932Z,103089.00
2019-03-19T14:50:27.251Z,103085.00
2019-03-19T14:52:02.636Z,103090.00
2019-03-19T14:53:38.022Z,103085.00
2019-03-19T14:55:14.401Z,103089.00
2019-03-19T14:56:49.799Z,103099.00
2019-03-19T14:58:25.217Z,103098.00
2019-03-19T15:00:00.611Z,103101.00
2019-03-19T15:01:36.002Z,103097.00
2019-03-19T15:03:11.405Z,103104.00
2019-03-19T15:04:49.909Z,103108.00
2019-03-19T15:06:34.163Z,103112.00
2019-03-19T15:08:11.328Z,103107.00
2019-03-19T15:09:48.415Z,103105.00
2019-03-19T15:11:26.518Z,103108.00
2019-03-19T15:13:03.007Z,103104.00
2019-03-19T15:14:40.803Z,103110.00
2019-03-19T15:16:20.031Z,103102.00
2019-03-19T15:17:58.602Z,103102.00
2019-03-19T15:19:36.760Z,103108.00
2019-03-19T15:21:21.444Z,103108.00
2019-03-19T15:22:57.136Z,103116.00
2019-03-19T15:24:32.987Z,103110.00
2019-03-19T15:26:10.266Z,103111.00
2019-03-19T15:27:45.828Z,103108.00
2019-03-19T15:29:21.372Z,103117.00
2019-03-19T15:30:56.894Z,103115.00
2019-03-19T15:32:44.981Z,103111.00
2019-03-19T15:34:22.666Z,103121.00
2019-03-19T15:35:58.110Z,103112.00
2019-03-19T15:37:36.647Z,103114.00
2019-03-19T15:39:19.280Z,103118.00
2019-03-19T15:40:59.170Z,103120.00
2019-03-19T15:42:40.724Z,103119.00
2019-03-19T15:44:27.999Z,103118.00
2019-03-19T15:46:11.882Z,103131.00
2019-03-19T15:48:01.048Z,103127.00
2019-03-19T15:49:46.801Z,103134.00
2019-03-19T15:51:28.555Z,103123.00
2019-03-19T15:53:08.424Z,103114.00
2019-03-19T15:54:48.545Z,103127.00
2019-03-19T15:56:34.785Z,103133.00
2019-03-19T15:58:16.372Z,103129.00
2019-03-19T15:59:57.675Z,103125.00
2019-03-19T16:01:40.618Z,103133.00
2019-03-19T16:03:15.310Z,103131.00
2019-03-19T16:04:58.809Z,103133.00
2019-03-19T16:06:40.402Z,103144.00
2019-03-19T16:08:28.599Z,103138.00
2019-03-19T16:10:08.883Z,103137.00
2019-03-19T16:11:54.838Z,103151.00
2019-03-19T16:13:37.695Z,103145.00
2019-03-19T16:15:26.038Z,103144.00
2019-03-19T16:17:03.198Z,103144.00
2019-03-19T16:19:02.075Z,103155.00
2019-03-19T16:20:36.911Z,103152.00
2019-03-19T16:22:22.703Z,103156.00
2019-03-19T16:26:41.057Z,103159.00
2019-03-19T16:28:18.230Z,103161.00
2019-03-19T16:29:55.043Z,103165.00
2019-03-19T16:31:32.249Z,103153.00
2019-03-19T16:33:10.632Z,103170.00
2019-03-19T16:34:46.233Z,103165.00
2019-03-19T16:36:38.240Z,103169.00
2019-03-19T16:38:40.891Z,103176.00
2019-03-19T16:40:41.802Z,103168.00
2019-03-19T16:56:13.184Z,103192.00
2019-03-19T16:57:50.756Z,103196.00
2019-03-19T16:59:26.122Z,103190.00
2019-03-19T17:00:41.015Z,103184.00
2019-03-19T17:01:03.042Z,103197.00
2019-03-19T17:02:38.781Z,103193.00
2019-03-19T17:04:21.896Z,103196.00
2019-03-19T17:06:08.830Z,103204.00
2019-03-19T17:07:45.814Z,103204.00
2019-03-19T17:09:24.724Z,103214.00
2019-03-19T17:11:05.690Z,103220.00
2019-03-19T17:12:46.180Z,103226.00
2019-03-19T17:14:21.914Z,103210.00
2019-03-19T17:15:57.400Z,103213.00
2019-03-19T17:17:32.831Z,103216.00
2019-03-19T17:19:08.476Z,103215.00
2019-03-19T17:20:43.928Z,103220.00
2019-03-19T17:22:22.909Z,103218.00
2019-03-19T17:23:58.415Z,103221.00
2019-03-19T17:25:33.842Z,103223.00
2019-03-19T17:29:41.933Z,103232.00
2019-03-19T17:31:19.191Z,103228.00
2019-03-19T17:32:54.657Z,103235.00
2019-03-19T17:34:33.317Z,103228.00
2019-03-19T17:36:12.085Z,103240.00
2019-03-19T17:37:57.624Z,103236.00
2019-03-19T17:39:50.857Z,103249.00
2019-03-19T17:41:41.436Z,103235.00
2019-03-19T17:43:27.092Z,103238.00
2019-03-19T17:45:12.612Z,103235.00
2019-03-19T17:49:06.913Z,103247.00
2019-03-19T17:50:59.223Z,103246.00
2019-03-19T17:52:34.372Z,103255.00
2019-03-19T17:54:16.501Z,103249.00
2019-03-19T17:55:58.945Z,103253.00
2019-03-19T17:57:39.018Z,103249.00
2019-03-19T17:59:18.171Z,103253.00
2019-03-19T18:01:02.086Z,103250.00
2019-03-19T18:02:43.402Z,103250.00
2019-03-19T18:04:19.142Z,103258.00
2019-03-19T18:05:55.333Z,103257.00
2019-03-19T18:07:34.926Z,103263.00
2019-03-19T18:09:22.678Z,103270.00
2019-03-19T18:11:04.236Z,103267.00
2019-03-19T18:12:46.334Z,103275.00
2019-03-19T18:14:23.590Z,103274.00
2019-03-19T18:16:09.726Z,103269.00
2019-03-19T18:18:08.724Z,103278.00
2019-03-19T18:20:03.285Z,103259.00
2019-03-19T18:22:09.766Z,103265.00
2019-03-19T18:24:06.193Z,103267.00
2019-03-19T18:25:52.667Z,103272.00
2019-03-19T18:27:37.884Z,103277.00
2019-03-19T18:29:23.224Z,103278.00
2019-03-19T18:31:08.107Z,103282.00
2019-03-19T18:32:44.126Z,103281.00
2019-03-19T18:34:25.862Z,103280.00
2019-03-19T18:36:01.321Z,103284.00
2019-03-19T18:37:59.191Z,103289.00
2019-03-19T18:39:36.178Z,103290.00
2019-03-19T18:41:20.522Z,103289.00
2019-03-19T18:43:19.637Z,103296.00
2019-03-19T18:47:18.631Z,103297.00
2019-03-19T18:49:24.243Z,103299.00
2019-03-19T18:53:35.848Z,103307.00
2019-03-19T18:55:17.565Z,103308.00